createdAt,value
2023-05-13T00:00:49.904Z,5.87
2023-05-13T00:01:50.231Z,5.54
2023-05-13T00:02:49.925Z,5.27
2023-05-13T00:03:50.041Z,5.90
2023-05-13T00:04:49.837Z,5.23
2023-05-13T00:05:49.900Z,5.57
2023-05-13T00:06:49.900Z,6.10
2023-05-13T00:07:49.873Z,5.61
2023-05-13T00:08:49.903Z,6.42
2023-05-13T00:09:49.870Z,5.33
2023-05-13T00:10:49.922Z,5.33
2023-05-13T00:12:49.911Z,5.26
2023-05-13T00:13:49.910Z,5.76
2023-05-13T00:14:49.874Z,5.93
2023-05-13T00:15:49.988Z,6.13
2023-05-13T00:16:49.992Z,6.72
2023-05-13T00:17:49.909Z,5.59
2023-05-13T00:19:49.896Z,6.69
2023-05-13T00:22:49.891Z,6.66
2023-05-13T00:23:49.938Z,6.68
2023-05-13T00:24:49.939Z,6.85
2023-05-13T00:25:49.944Z,6.69
2023-05-13T00:26:49.948Z,6.60
2023-05-13T00:28:49.968Z,6.49
2023-05-13T00:29:49.966Z,6.39
2023-05-13T00:32:50.006Z,6.63
2023-05-13T00:33:49.975Z,6.70
2023-05-13T00:34:49.937Z,7.47
2023-05-13T00:35:49.972Z,7.02
2023-05-13T00:36:49.980Z,6.45
2023-05-13T00:37:49.970Z,7.03
2023-05-13T00:38:49.984Z,6.78
2023-05-13T00:39:49.966Z,7.59
2023-05-13T00:40:49.943Z,5.87
2023-05-13T00:42:49.997Z,6.96
2023-05-13T00:45:50.018Z,6.71
2023-05-13T00:46:49.932Z,6.73
2023-05-13T00:47:50.031Z,7.39
2023-05-13T00:48:49.972Z,7.46
2023-05-13T00:49:50.003Z,6.85
2023-05-13T00:50:50.030Z,7.27
2023-05-13T00:51:49.999Z,7.08
2023-05-13T00:54:50.022Z,7.11
2023-05-13T00:55:49.970Z,7.25
2023-05-13T00:57:50.021Z,7.02
2023-05-13T00:58:50.004Z,6.89
2023-05-13T00:59:49.982Z,8.00
2023-05-13T01:00:50.052Z,7.40
2023-05-13T01:01:49.995Z,7.58
2023-05-13T01:03:50.054Z,6.41
2023-05-13T01:04:49.979Z,7.30
2023-05-13T01:05:50.051Z,8.25
2023-05-13T01:06:50.029Z,7.72
2023-05-13T01:07:50.055Z,7.54
2023-05-13T01:08:50.042Z,7.47
2023-05-13T01:09:50.035Z,6.78
2023-05-13T01:10:50.122Z,7.81
2023-05-13T01:11:50.079Z,7.24
2023-05-13T01:12:50.034Z,7.67
2023-05-13T01:13:50.069Z,7.51
2023-05-13T01:14:50.022Z,7.77
2023-05-13T01:15:50.091Z,7.93
2023-05-13T01:16:50.191Z,7.38
2023-05-13T01:17:50.143Z,7.51
2023-05-13T01:18:50.112Z,7.75
2023-05-13T01:19:50.073Z,7.98
2023-05-13T01:20:50.075Z,8.21
2023-05-13T01:21:50.046Z,8.32
2023-05-13T01:22:50.018Z,7.76
2023-05-13T01:23:50.107Z,7.88
2023-05-13T01:24:50.087Z,8.10
2023-05-13T01:25:50.098Z,9.10
2023-05-13T01:26:50.095Z,8.35
2023-05-13T01:27:50.028Z,7.47
2023-05-13T01:28:50.117Z,8.94
2023-05-13T01:29:50.079Z,7.73
2023-05-13T01:30:50.125Z,8.29
2023-05-13T01:31:50.078Z,8.30
2023-05-13T01:32:50.124Z,8.15
2023-05-13T01:33:50.133Z,8.27
2023-05-13T01:34:50.121Z,7.87
2023-05-13T01:35:50.088Z,7.91
2023-05-13T01:36:50.127Z,8.84
2023-05-13T01:39:50.103Z,8.72
2023-05-13T01:40:50.069Z,8.90
2023-05-13T01:41:50.096Z,7.92
2023-05-13T01:42:50.119Z,8.87
2023-05-13T01:43:50.130Z,8.78
2023-05-13T01:44:50.160Z,7.59
2023-05-13T01:45:50.079Z,8.29
2023-05-13T01:46:50.292Z,9.07
2023-05-13T01:48:50.082Z,8.52
2023-05-13T01:50:50.118Z,8.82
2023-05-13T01:51:50.138Z,7.98
2023-05-13T01:53:50.106Z,8.38
2023-05-13T01:54:50.142Z,7.61
2023-05-13T01:55:50.102Z,8.51
2023-05-13T01:56:50.135Z,8.40
2023-05-13T01:57:50.154Z,8.21
2023-05-13T01:58:50.130Z,7.71
2023-05-13T01:59:50.163Z,8.01
2023-05-13T02:01:50.194Z,7.85
2023-05-13T02:03:50.268Z,7.94
2023-05-13T02:04:50.186Z,7.79
2023-05-13T02:05:50.196Z,8.51
2023-05-13T02:06:50.160Z,7.99
2023-05-13T02:07:50.191Z,8.41
2023-05-13T02:08:50.198Z,7.58
2023-05-13T02:10:50.169Z,8.40
2023-05-13T02:11:50.168Z,8.20
2023-05-13T02:12:50.172Z,8.67
2023-05-13T02:13:50.185Z,8.66
2023-05-13T02:15:50.222Z,8.58
2023-05-13T02:16:50.387Z,8.53
2023-05-13T02:18:50.317Z,8.82
2023-05-13T02:19:50.156Z,8.40
2023-05-13T02:20:50.226Z,8.59
2023-05-13T02:21:50.211Z,7.95
2023-05-13T02:22:50.211Z,8.27
2023-05-13T02:23:50.214Z,8.51
2023-05-13T02:24:50.189Z,8.76
2023-05-13T02:25:50.233Z,9.10
2023-05-13T02:26:50.222Z,7.66
2023-05-13T02:27:50.215Z,8.35
2023-05-13T02:28:50.256Z,8.05
2023-05-13T02:29:50.236Z,8.74
2023-05-13T02:30:50.220Z,8.19
2023-05-13T02:31:50.295Z,8.67
2023-05-13T02:32:50.258Z,8.38
2023-05-13T02:33:50.235Z,9.05
2023-05-13T02:34:50.239Z,9.20
2023-05-13T02:35:50.268Z,8.99
2023-05-13T02:36:50.238Z,8.78
2023-05-13T02:38:50.267Z,9.03
2023-05-13T02:39:50.288Z,8.43
2023-05-13T02:40:50.255Z,8.96
2023-05-13T02:41:50.214Z,8.63
2023-05-13T02:42:50.265Z,9.12
2023-05-13T02:43:50.274Z,8.88
2023-05-13T02:46:50.295Z,8.51
2023-05-13T02:47:50.328Z,8.72
2023-05-13T02:48:50.296Z,9.03
2023-05-13T02:49:50.304Z,8.45
2023-05-13T02:50:50.244Z,8.46
2023-05-13T02:51:50.305Z,8.45
2023-05-13T02:52:50.279Z,8.53
2023-05-13T02:53:50.274Z,9.25
2023-05-13T02:54:50.338Z,9.22
2023-05-13T02:55:50.315Z,9.09
2023-05-13T02:56:50.325Z,9.01
2023-05-13T02:57:50.340Z,9.92
2023-05-13T02:58:50.257Z,9.80
2023-05-13T02:59:50.310Z,8.60
2023-05-13T03:01:50.400Z,9.30
2023-05-13T03:02:50.405Z,9.38
2023-05-13T03:03:50.267Z,9.91
2023-05-13T03:05:50.315Z,8.82
2023-05-13T03:07:50.374Z,9.13
2023-05-13T03:08:50.329Z,8.33
2023-05-13T03:10:50.353Z,9.75
2023-05-13T03:11:50.318Z,9.64
2023-05-13T03:12:50.288Z,8.44
2023-05-13T03:13:50.392Z,9.55
2023-05-13T03:15:50.388Z,10.25
2023-05-13T03:16:50.282Z,8.84
2023-05-13T03:17:50.428Z,9.09
2023-05-13T03:18:50.412Z,8.48
2023-05-13T03:20:50.342Z,9.00
2023-05-13T03:21:50.366Z,9.05
2023-05-13T03:22:50.393Z,9.72
2023-05-13T03:24:50.326Z,9.58
2023-05-13T03:25:50.377Z,9.41
2023-05-13T03:26:50.363Z,9.62
2023-05-13T03:27:50.377Z,10.40
2023-05-13T03:28:50.374Z,9.13
2023-05-13T03:29:50.364Z,10.25
2023-05-13T03:30:50.411Z,10.22
2023-05-13T03:32:50.384Z,10.11
2023-05-13T03:33:50.416Z,10.07
2023-05-13T03:35:50.389Z,9.19
2023-05-13T03:36:50.394Z,10.86
2023-05-13T03:37:50.370Z,9.44
2023-05-13T03:38:50.418Z,9.81
2023-05-13T03:40:50.409Z,9.97
2023-05-13T03:41:50.422Z,9.76
2023-05-13T03:43:50.440Z,9.44
2023-05-13T03:46:50.490Z,10.14
2023-05-13T03:47:50.521Z,10.81
2023-05-13T03:50:50.453Z,10.18
2023-05-13T03:51:50.453Z,10.29
2023-05-13T03:52:50.468Z,10.20
2023-05-13T03:53:50.428Z,10.97
2023-05-13T03:55:50.451Z,10.33
2023-05-13T03:58:50.490Z,10.17
2023-05-13T03:59:50.496Z,10.70
2023-05-13T04:00:50.452Z,11.06
2023-05-13T04:01:50.498Z,10.47
2023-05-13T04:02:50.587Z,11.05
2023-05-13T04:03:50.450Z,11.02
2023-05-13T04:06:50.472Z,11.31
2023-05-13T04:07:50.508Z,10.77
2023-05-13T04:08:50.506Z,10.84
2023-05-13T04:09:50.488Z,10.58
2023-05-13T04:10:50.480Z,9.77
2023-05-13T04:11:50.459Z,10.05
2023-05-13T04:12:50.523Z,10.93
2023-05-13T04:15:50.502Z,11.34
2023-05-13T04:16:50.499Z,10.55
2023-05-13T04:17:50.499Z,11.23
2023-05-13T04:19:50.515Z,10.86
2023-05-13T04:20:50.551Z,11.27
2023-05-13T04:21:50.504Z,10.55
2023-05-13T04:22:50.559Z,10.27
2023-05-13T04:23:50.502Z,11.91
2023-05-13T04:24:50.522Z,10.82
2023-05-13T04:25:50.496Z,10.55
2023-05-13T04:26:50.565Z,10.32
2023-05-13T04:28:50.522Z,11.19
2023-05-13T04:29:50.528Z,10.94
2023-05-13T04:30:50.560Z,10.61
2023-05-13T04:31:50.588Z,12.10
2023-05-13T04:33:50.559Z,10.85
2023-05-13T04:34:50.580Z,11.09
2023-05-13T04:35:50.531Z,10.36
2023-05-13T04:36:50.592Z,10.64
2023-05-13T04:38:50.570Z,10.60
2023-05-13T04:40:50.568Z,12.60
2023-05-13T04:41:50.588Z,10.55
2023-05-13T04:42:50.546Z,12.12
2023-05-13T04:43:50.575Z,10.77
2023-05-13T04:44:50.569Z,11.35
2023-05-13T04:45:50.648Z,11.59
2023-05-13T04:46:50.698Z,10.72
2023-05-13T04:47:50.640Z,11.34
2023-05-13T04:49:50.583Z,10.74
2023-05-13T04:50:50.587Z,10.95
2023-05-13T04:52:50.621Z,11.30
2023-05-13T04:53:50.601Z,11.22
2023-05-13T04:56:50.619Z,11.39
2023-05-13T04:57:50.616Z,11.00
2023-05-13T04:58:50.594Z,11.37
2023-05-13T04:59:50.619Z,10.55
2023-05-13T05:04:50.657Z,10.68
2023-05-13T05:05:50.655Z,10.96
2023-05-13T05:06:50.643Z,11.53
2023-05-13T05:07:50.664Z,11.78
2023-05-13T05:09:50.629Z,10.68
2023-05-13T05:10:50.657Z,10.68
2023-05-13T05:11:50.669Z,10.43
2023-05-13T05:12:50.683Z,12.16
2023-05-13T05:13:50.652Z,11.02
2023-05-13T05:14:50.607Z,10.05
2023-05-13T05:17:50.751Z,10.97
2023-05-13T05:18:50.737Z,10.81
2023-05-13T05:19:50.658Z,9.94
2023-05-13T05:20:50.664Z,10.91
2023-05-13T05:21:50.641Z,10.50
2023-05-13T05:22:50.674Z,10.37
2023-05-13T05:23:50.643Z,11.05
2023-05-13T05:24:50.653Z,11.16
2023-05-13T05:25:57.806Z,10.53
2023-05-13T05:26:50.715Z,10.91
2023-05-13T05:27:50.736Z,10.58
2023-05-13T05:28:50.721Z,10.47
2023-05-13T05:29:50.681Z,10.69
2023-05-13T05:30:50.682Z,10.78
2023-05-13T05:31:50.743Z,11.52
2023-05-13T05:32:50.767Z,10.36
2023-05-13T05:33:50.728Z,10.96
2023-05-13T05:34:50.654Z,10.65
2023-05-13T05:35:50.693Z,10.84
2023-05-13T05:36:50.712Z,11.00
2023-05-13T05:37:50.723Z,11.52
2023-05-13T05:38:50.732Z,10.28
2023-05-13T05:39:50.701Z,10.33
2023-05-13T05:40:50.728Z,10.58
2023-05-13T05:41:50.705Z,11.24
2023-05-13T05:42:50.700Z,10.88
2023-05-13T05:43:50.736Z,10.36
2023-05-13T05:44:50.762Z,11.09
2023-05-13T05:45:50.855Z,10.87
2023-05-13T05:46:50.750Z,10.38
2023-05-13T05:47:50.711Z,11.04
2023-05-13T05:48:50.767Z,10.59
2023-05-13T05:49:50.773Z,11.05
2023-05-13T05:50:50.724Z,11.11
2023-05-13T05:51:50.754Z,10.50
2023-05-13T05:52:50.773Z,10.37
2023-05-13T05:53:50.739Z,10.54
2023-05-13T05:54:50.770Z,10.43
2023-05-13T05:55:52.947Z,10.12
2023-05-13T05:56:50.749Z,10.71
2023-05-13T05:57:50.776Z,10.89
2023-05-13T05:58:50.823Z,10.00
2023-05-13T05:59:50.785Z,10.03
2023-05-13T06:00:50.722Z,10.55
2023-05-13T06:02:50.858Z,10.07
2023-05-13T06:04:50.796Z,10.26
2023-05-13T06:07:50.778Z,10.16
2023-05-13T06:08:50.777Z,10.10
2023-05-13T06:09:50.784Z,9.26
2023-05-13T06:11:50.812Z,10.45
2023-05-13T06:12:50.828Z,10.57
2023-05-13T06:13:50.790Z,11.01
2023-05-13T06:15:50.857Z,9.65
2023-05-13T06:16:50.785Z,9.88
2023-05-13T06:17:50.854Z,10.10
2023-05-13T06:18:50.837Z,9.91
2023-05-13T06:19:50.851Z,9.66
2023-05-13T06:20:50.833Z,9.67
2023-05-13T06:22:50.848Z,9.58
2023-05-13T06:23:50.857Z,9.25
2023-05-13T06:24:50.841Z,9.30
2023-05-13T06:25:50.845Z,9.84
2023-05-13T06:26:50.806Z,9.38
2023-05-13T06:27:50.829Z,9.23
2023-05-13T06:28:50.848Z,9.98
2023-05-13T06:30:50.910Z,9.19
2023-05-13T06:31:50.930Z,9.32
2023-05-13T06:33:01.045Z,8.38
2023-05-13T06:33:50.867Z,9.39
2023-05-13T06:34:50.836Z,9.64
2023-05-13T06:35:50.900Z,8.68
2023-05-13T06:36:50.886Z,8.67
2023-05-13T06:37:50.882Z,8.91
2023-05-13T06:38:50.847Z,8.45
2023-05-13T06:39:50.833Z,8.97
2023-05-13T06:40:50.891Z,8.87
2023-05-13T06:41:50.864Z,8.74
2023-05-13T06:42:50.864Z,7.95
2023-05-13T06:43:50.878Z,8.42
2023-05-13T06:45:50.835Z,8.76
2023-05-13T06:47:50.925Z,8.66
2023-05-13T06:48:50.896Z,9.30
2023-05-13T06:49:50.888Z,9.59
2023-05-13T06:50:50.899Z,9.89
2023-05-13T06:51:50.886Z,9.47
2023-05-13T06:52:50.852Z,8.87
2023-05-13T06:53:50.923Z,8.39
2023-05-13T06:54:50.930Z,8.83
2023-05-13T06:55:50.896Z,9.16
2023-05-13T06:56:50.901Z,9.01
2023-05-13T06:57:50.951Z,8.68
2023-05-13T06:58:50.927Z,8.91
2023-05-13T07:00:50.942Z,8.38
2023-05-13T07:01:50.926Z,8.28
2023-05-13T07:02:50.999Z,8.77
2023-05-13T07:03:50.936Z,8.30
2023-05-13T07:04:50.904Z,9.36
2023-05-13T07:05:50.960Z,8.93
2023-05-13T07:06:50.960Z,9.26
2023-05-13T07:07:50.932Z,8.68
2023-05-13T07:08:50.890Z,8.81
2023-05-13T07:09:50.915Z,8.59
2023-05-13T07:10:51.204Z,8.43
2023-05-13T07:11:51.005Z,9.08
2023-05-13T07:13:50.934Z,9.13
2023-05-13T07:14:50.950Z,9.13
2023-05-13T07:16:51.050Z,8.93
2023-05-13T07:17:51.083Z,8.90
2023-05-13T07:18:51.032Z,8.23
2023-05-13T07:19:50.959Z,8.05
2023-05-13T07:20:50.973Z,8.01
2023-05-13T07:22:51.011Z,8.39
2023-05-13T07:23:50.972Z,8.60
2023-05-13T07:24:50.996Z,8.62
2023-05-13T07:26:50.935Z,7.65
2023-05-13T07:27:50.996Z,8.60
2023-05-13T07:29:50.981Z,8.97
2023-05-13T07:30:51.070Z,8.98
2023-05-13T07:31:51.000Z,8.85
2023-05-13T07:32:53.697Z,9.05
2023-05-13T07:33:50.997Z,8.37
2023-05-13T07:34:51.011Z,8.36
2023-05-13T07:35:51.024Z,7.50
2023-05-13T07:36:51.024Z,7.41
2023-05-13T07:37:50.978Z,8.26
2023-05-13T07:38:51.025Z,8.50
2023-05-13T07:39:51.025Z,8.00
2023-05-13T07:40:50.981Z,8.35
2023-05-13T07:41:51.050Z,8.84
2023-05-13T07:42:50.990Z,8.60
2023-05-13T07:43:51.050Z,7.38
2023-05-13T07:44:51.049Z,9.18
2023-05-13T07:46:51.072Z,7.84
2023-05-13T07:47:51.053Z,8.51
2023-05-13T07:48:51.047Z,8.46
2023-05-13T07:49:51.117Z,8.62
2023-05-13T07:50:51.031Z,8.69
2023-05-13T07:51:51.071Z,8.44
2023-05-13T07:52:51.071Z,7.21
2023-05-13T07:53:51.074Z,7.61
2023-05-13T07:54:51.055Z,8.72
2023-05-13T07:55:51.065Z,7.68
2023-05-13T07:56:51.044Z,8.24
2023-05-13T07:57:51.057Z,7.66
2023-05-13T07:58:51.088Z,7.54
2023-05-13T07:59:51.065Z,8.17
2023-05-13T08:00:51.093Z,7.73
2023-05-13T08:01:51.113Z,7.23
2023-05-13T08:02:51.188Z,7.34
2023-05-13T08:03:51.374Z,7.60
2023-05-13T08:04:51.179Z,8.40
2023-05-13T08:05:51.118Z,7.57
2023-05-13T08:06:51.122Z,6.96
2023-05-13T08:07:51.049Z,8.14
2023-05-13T08:08:51.065Z,7.81
2023-05-13T08:09:51.175Z,6.81
2023-05-13T08:10:51.104Z,8.10
2023-05-13T08:11:51.200Z,7.67
2023-05-13T08:12:51.229Z,7.55
2023-05-13T08:13:51.103Z,7.83
2023-05-13T08:14:51.186Z,7.73
2023-05-13T08:15:51.198Z,7.18
2023-05-13T08:16:51.198Z,7.56
2023-05-13T08:17:51.209Z,7.77
2023-05-13T08:18:51.299Z,6.77
2023-05-13T08:19:51.128Z,8.44
2023-05-13T08:20:51.134Z,8.46
2023-05-13T08:21:51.090Z,8.49
2023-05-13T08:23:51.202Z,7.91
2023-05-13T08:24:51.089Z,8.60
2023-05-13T08:25:51.140Z,7.48
2023-05-13T08:27:51.303Z,7.36
2023-05-13T08:28:54.495Z,7.71
2023-05-13T08:29:51.150Z,6.93
2023-05-13T08:30:51.141Z,7.34
2023-05-13T08:31:51.164Z,7.42
2023-05-13T08:33:51.234Z,7.93
2023-05-13T08:34:51.135Z,8.55
2023-05-13T08:35:51.147Z,8.79
2023-05-13T08:36:51.173Z,7.70
2023-05-13T08:37:51.115Z,7.96
2023-05-13T08:38:51.409Z,6.87
2023-05-13T08:39:51.180Z,7.79
2023-05-13T08:40:51.210Z,6.98
2023-05-13T08:41:51.195Z,6.91
2023-05-13T08:42:51.123Z,7.67
2023-05-13T08:43:51.172Z,7.66
2023-05-13T08:44:51.149Z,7.55
2023-05-13T08:46:51.172Z,7.67
2023-05-13T08:47:51.201Z,7.71
2023-05-13T08:48:51.178Z,7.77
2023-05-13T08:49:51.244Z,8.01
2023-05-13T08:51:51.206Z,7.19
2023-05-13T08:52:51.223Z,7.10
2023-05-13T08:53:51.242Z,6.70
2023-05-13T08:54:51.226Z,6.60
2023-05-13T08:55:51.207Z,6.86
2023-05-13T08:56:51.261Z,6.79
2023-05-13T08:57:51.234Z,7.08
2023-05-13T08:58:51.238Z,6.45
2023-05-13T08:59:51.215Z,6.72
2023-05-13T09:00:51.183Z,5.80
2023-05-13T09:02:51.269Z,7.41
2023-05-13T09:04:51.314Z,6.77
2023-05-13T09:06:51.230Z,6.86
2023-05-13T09:07:51.266Z,7.38
2023-05-13T09:08:51.241Z,6.62
2023-05-13T09:09:51.236Z,6.87
2023-05-13T09:12:51.248Z,6.48
2023-05-13T09:13:51.265Z,6.47
2023-05-13T09:14:51.310Z,6.28
2023-05-13T09:15:51.319Z,5.99
2023-05-13T09:16:51.225Z,6.27
2023-05-13T09:17:51.318Z,6.75
2023-05-13T09:18:51.447Z,6.63
2023-05-13T09:19:51.414Z,6.34
2023-05-13T09:20:51.293Z,6.60
2023-05-13T09:21:51.261Z,6.90
2023-05-13T09:22:51.282Z,7.38
2023-05-13T09:23:51.295Z,6.40
2023-05-13T09:24:51.284Z,6.79
2023-05-13T09:25:51.330Z,6.49
2023-05-13T09:26:51.316Z,6.01
2023-05-13T09:27:51.307Z,6.76
2023-05-13T09:28:51.334Z,6.46
2023-05-13T09:29:51.278Z,6.32
2023-05-13T09:30:51.380Z,6.34
2023-05-13T09:31:51.312Z,6.94
2023-05-13T09:32:51.344Z,6.93
2023-05-13T09:33:51.303Z,6.40
2023-05-13T09:34:51.256Z,6.72
2023-05-13T09:35:51.286Z,6.29
2023-05-13T09:36:51.399Z,7.60
2023-05-13T09:37:51.297Z,7.07
2023-05-13T09:38:51.314Z,6.51
2023-05-13T09:39:51.351Z,6.85
2023-05-13T09:40:51.317Z,6.73
2023-05-13T09:41:51.367Z,7.05
2023-05-13T09:42:51.321Z,6.68
2023-05-13T09:43:51.326Z,6.34
2023-05-13T09:44:51.342Z,6.83
2023-05-13T09:46:51.401Z,6.84
2023-05-13T09:47:51.343Z,7.48
2023-05-13T09:48:51.370Z,8.11
2023-05-13T09:49:51.341Z,7.84
2023-05-13T09:50:51.398Z,7.75
2023-05-13T09:51:51.338Z,7.93
2023-05-13T09:53:51.374Z,7.79
2023-05-13T09:54:51.345Z,7.34
2023-05-13T09:55:51.350Z,7.38
2023-05-13T09:56:51.381Z,7.51
2023-05-13T09:57:51.401Z,6.65
2023-05-13T09:58:51.391Z,7.51
2023-05-13T09:59:51.385Z,7.83
2023-05-13T10:00:51.421Z,6.90
2023-05-13T10:01:51.493Z,7.24
2023-05-13T10:02:51.395Z,7.25
2023-05-13T10:03:51.392Z,7.19
2023-05-13T10:04:51.370Z,6.63
2023-05-13T10:05:51.458Z,7.26
2023-05-13T10:06:51.383Z,7.66
2023-05-13T10:07:51.417Z,6.83
2023-05-13T10:08:51.367Z,6.84
2023-05-13T10:09:51.410Z,7.36
2023-05-13T10:10:51.440Z,7.19
2023-05-13T10:11:51.450Z,7.19
2023-05-13T10:12:51.448Z,7.18
2023-05-13T10:13:51.385Z,6.54
2023-05-13T10:14:51.418Z,7.31
2023-05-13T10:15:51.385Z,7.84
2023-05-13T10:16:51.429Z,7.51
2023-05-13T10:17:51.481Z,7.83
2023-05-13T10:18:51.475Z,6.79
2023-05-13T10:19:51.418Z,7.21
2023-05-13T10:20:51.422Z,7.37
2023-05-13T10:21:51.372Z,7.18
2023-05-13T10:22:51.459Z,6.29
2023-05-13T10:23:51.481Z,6.98
2023-05-13T10:24:51.467Z,7.02
2023-05-13T10:25:51.458Z,6.85
2023-05-13T10:26:51.424Z,7.11
2023-05-13T10:27:51.412Z,7.79
2023-05-13T10:28:51.459Z,7.12
2023-05-13T10:29:51.409Z,8.44
2023-05-13T10:30:51.639Z,7.61
2023-05-13T10:31:51.484Z,7.60
2023-05-13T10:32:51.519Z,7.18
2023-05-13T10:33:51.492Z,6.74
2023-05-13T10:34:51.447Z,6.93
2023-05-13T10:35:51.464Z,6.94
2023-05-13T10:36:51.489Z,7.70
2023-05-13T10:37:51.502Z,7.03
2023-05-13T10:38:51.490Z,7.18
2023-05-13T10:39:51.477Z,7.47
2023-05-13T10:40:51.511Z,6.89
2023-05-13T10:41:51.501Z,6.62
2023-05-13T10:42:51.450Z,6.02
2023-05-13T10:44:51.498Z,6.85
2023-05-13T10:45:51.585Z,6.59
2023-05-13T10:47:51.642Z,6.94
2023-05-13T10:48:51.514Z,6.79
2023-05-13T10:49:51.505Z,6.22
2023-05-13T10:50:51.585Z,6.78
2023-05-13T10:51:51.534Z,7.12
2023-05-13T10:52:51.508Z,7.19
2023-05-13T10:53:51.527Z,6.79
2023-05-13T10:54:51.532Z,6.49
2023-05-13T10:55:51.463Z,6.71
2023-05-13T10:56:51.530Z,6.47
2023-05-13T10:57:51.508Z,6.63
2023-05-13T10:58:51.543Z,6.62
2023-05-13T10:59:51.489Z,6.90
2023-05-13T11:00:51.509Z,6.90
2023-05-13T11:01:51.545Z,6.36
2023-05-13T11:02:51.588Z,7.44
2023-05-13T11:03:51.612Z,6.32
2023-05-13T11:04:51.561Z,7.35
2023-05-13T11:05:51.493Z,7.36
2023-05-13T11:06:51.551Z,7.46
2023-05-13T11:07:51.581Z,6.31
2023-05-13T11:08:53.089Z,6.81
2023-05-13T11:09:51.517Z,6.40
2023-05-13T11:10:51.622Z,6.39
2023-05-13T11:11:51.532Z,6.32
2023-05-13T11:12:51.575Z,6.46
2023-05-13T11:13:51.517Z,6.94
2023-05-13T11:14:51.588Z,6.90
2023-05-13T11:16:51.582Z,6.08
2023-05-13T11:17:51.587Z,6.53
2023-05-13T11:18:51.741Z,6.08
2023-05-13T11:19:51.584Z,6.39
2023-05-13T11:20:55.048Z,5.73
2023-05-13T11:21:51.523Z,5.96
2023-05-13T11:22:51.574Z,6.23
2023-05-13T11:23:51.628Z,6.73
2023-05-13T11:24:51.586Z,6.60
2023-05-13T11:25:51.580Z,6.48
2023-05-13T11:26:51.553Z,6.26
2023-05-13T11:27:51.595Z,6.32
2023-05-13T11:28:51.601Z,6.29
2023-05-13T11:29:51.604Z,6.27
2023-05-13T11:30:51.578Z,5.47
2023-05-13T11:31:51.880Z,6.36
2023-05-13T11:32:51.836Z,6.08
2023-05-13T11:33:51.610Z,6.08
2023-05-13T11:34:51.599Z,5.74
2023-05-13T11:35:51.706Z,6.05
2023-05-13T11:36:51.631Z,5.83
2023-05-13T11:37:51.630Z,6.58
2023-05-13T11:38:51.623Z,6.15
2023-05-13T11:39:51.589Z,5.90
2023-05-13T11:40:51.637Z,5.70
2023-05-13T11:41:51.687Z,6.36
2023-05-13T11:42:51.620Z,5.91
2023-05-13T11:43:51.628Z,6.00
2023-05-13T11:45:51.704Z,5.48
2023-05-13T11:46:51.644Z,5.48
2023-05-13T11:47:51.619Z,5.78
2023-05-13T11:48:51.686Z,5.89
2023-05-13T11:49:51.659Z,5.75
2023-05-13T11:50:51.673Z,5.91
2023-05-13T11:51:51.655Z,6.00
2023-05-13T11:52:51.623Z,6.17
2023-05-13T11:53:51.691Z,5.58
2023-05-13T11:54:51.688Z,6.87
2023-05-13T11:55:51.729Z,5.27
2023-05-13T11:56:51.682Z,5.62
2023-05-13T11:57:51.680Z,6.46
2023-05-13T11:58:51.660Z,6.16
2023-05-13T11:59:51.710Z,6.64
2023-05-13T12:00:51.632Z,6.24
2023-05-13T12:01:51.720Z,6.12
2023-05-13T12:02:51.855Z,6.24
2023-05-13T12:03:51.732Z,6.48
2023-05-13T12:04:51.799Z,6.11
2023-05-13T12:05:51.676Z,7.04
2023-05-13T12:06:51.723Z,7.12
2023-05-13T12:07:51.662Z,7.37
2023-05-13T12:09:51.768Z,5.68
2023-05-13T12:10:51.701Z,6.35
2023-05-13T12:11:51.741Z,6.49
2023-05-13T12:12:51.743Z,6.85
2023-05-13T12:13:51.663Z,7.60
2023-05-13T12:14:51.728Z,6.74
2023-05-13T12:15:51.771Z,7.08
2023-05-13T12:16:51.716Z,6.01
2023-05-13T12:17:51.817Z,7.25
2023-05-13T12:18:51.743Z,7.01
2023-05-13T12:19:51.754Z,6.44
2023-05-13T12:20:51.790Z,6.63
2023-05-13T12:21:51.720Z,5.83
2023-05-13T12:22:51.748Z,6.77
2023-05-13T12:23:51.739Z,6.97
2023-05-13T12:24:51.744Z,7.39
2023-05-13T12:25:51.770Z,7.14
2023-05-13T12:26:51.729Z,6.96
2023-05-13T12:27:51.720Z,6.44
2023-05-13T12:28:51.745Z,6.54
2023-05-13T12:29:51.801Z,6.23
2023-05-13T12:30:51.841Z,6.25
2023-05-13T12:31:51.930Z,7.19
2023-05-13T12:33:51.775Z,7.61
2023-05-13T12:34:51.784Z,6.51
2023-05-13T12:35:51.827Z,7.25
2023-05-13T12:36:51.763Z,7.42
2023-05-13T12:37:51.826Z,7.18
2023-05-13T12:39:51.767Z,5.90
2023-05-13T12:40:51.779Z,5.88
2023-05-13T12:41:51.811Z,6.01
2023-05-13T12:42:51.778Z,5.96
2023-05-13T12:43:51.796Z,6.26
2023-05-13T12:44:51.781Z,6.03
2023-05-13T12:45:51.796Z,6.63
2023-05-13T12:46:51.877Z,6.53
2023-05-13T12:48:51.808Z,6.57
2023-05-13T12:49:51.762Z,6.78
2023-05-13T12:51:51.867Z,6.68
2023-05-13T12:52:51.758Z,6.45
2023-05-13T12:53:51.838Z,7.10
2023-05-13T12:54:51.837Z,6.26
2023-05-13T12:55:51.847Z,6.23
2023-05-13T12:56:51.842Z,7.20
2023-05-13T12:57:51.827Z,6.59
2023-05-13T12:58:51.822Z,5.58
2023-05-13T12:59:51.841Z,6.31
2023-05-13T13:00:51.848Z,6.08
2023-05-13T13:01:51.804Z,6.43
2023-05-13T13:02:51.961Z,6.21
2023-05-13T13:03:51.971Z,6.04
2023-05-13T13:04:51.898Z,6.18
2023-05-13T13:05:51.835Z,7.01
2023-05-13T13:06:51.871Z,6.47
2023-05-13T13:07:51.885Z,6.36
2023-05-13T13:08:51.866Z,6.57
2023-05-13T13:09:51.878Z,7.74
2023-05-13T13:10:51.853Z,7.41
2023-05-13T13:11:51.892Z,7.89
2023-05-13T13:12:51.874Z,7.27
2023-05-13T13:13:51.868Z,6.62
2023-05-13T13:14:51.874Z,6.68
2023-05-13T13:15:51.923Z,6.97
2023-05-13T13:16:51.928Z,6.55
2023-05-13T13:17:51.957Z,5.92
2023-05-13T13:18:53.431Z,6.50
2023-05-13T13:19:51.882Z,6.19
2023-05-13T13:20:51.882Z,6.46
2023-05-13T13:21:51.867Z,6.71
2023-05-13T13:22:51.921Z,6.65
2023-05-13T13:23:51.886Z,6.93
2023-05-13T13:24:51.897Z,7.98
2023-05-13T13:25:51.928Z,7.36
2023-05-13T13:26:51.901Z,7.81
2023-05-13T13:27:51.887Z,7.50
2023-05-13T13:28:51.932Z,6.98
2023-05-13T13:29:51.937Z,7.97
2023-05-13T13:30:51.934Z,7.12
2023-05-13T13:31:51.920Z,6.96
2023-05-13T13:32:51.963Z,7.65
2023-05-13T13:33:51.924Z,8.01
2023-05-13T13:34:51.940Z,8.03
2023-05-13T13:35:51.961Z,6.92
2023-05-13T13:36:51.893Z,7.22
2023-05-13T13:37:51.938Z,6.98
2023-05-13T13:38:51.945Z,7.27
2023-05-13T13:39:53.327Z,6.96
2023-05-13T13:40:51.951Z,7.18
2023-05-13T13:41:52.015Z,6.52
2023-05-13T13:42:51.923Z,7.20
2023-05-13T13:43:51.999Z,7.08
2023-05-13T13:44:51.925Z,7.77
2023-05-13T13:45:52.009Z,6.90
2023-05-13T13:46:51.978Z,6.61
2023-05-13T13:47:52.048Z,7.31
2023-05-13T13:48:51.918Z,5.92
2023-05-13T13:49:51.917Z,7.63
2023-05-13T13:50:52.900Z,7.92
2023-05-13T13:51:51.960Z,7.29
2023-05-13T13:52:51.955Z,7.41
2023-05-13T13:53:52.001Z,6.76
2023-05-13T13:54:52.008Z,7.16
2023-05-13T13:56:52.007Z,7.21
2023-05-13T13:58:52.034Z,6.96
2023-05-13T13:59:52.030Z,6.87
2023-05-13T14:00:51.963Z,7.39
2023-05-13T14:01:52.036Z,6.61
2023-05-13T14:02:52.114Z,6.75
2023-05-13T14:03:52.177Z,6.81
2023-05-13T14:04:51.993Z,7.03
2023-05-13T14:05:51.984Z,6.77
2023-05-13T14:06:52.038Z,7.06
2023-05-13T14:07:52.032Z,7.15
2023-05-13T14:08:52.022Z,6.99
2023-05-13T14:09:52.062Z,7.23
2023-05-13T14:10:51.993Z,7.12
2023-05-13T14:11:52.034Z,6.82
2023-05-13T14:12:52.017Z,7.09
2023-05-13T14:13:52.016Z,6.34
2023-05-13T14:15:52.125Z,6.82
2023-05-13T14:16:52.047Z,7.68
2023-05-13T14:17:52.067Z,6.89
2023-05-13T14:18:52.075Z,6.45
2023-05-13T14:19:52.021Z,7.14
2023-05-13T14:20:52.033Z,8.00
2023-05-13T14:21:52.060Z,7.33
2023-05-13T14:22:52.254Z,7.57
2023-05-13T14:23:52.015Z,6.80
2023-05-13T14:25:52.047Z,6.83
2023-05-13T14:26:52.060Z,6.99
2023-05-13T14:27:52.054Z,6.70
2023-05-13T14:28:52.093Z,7.04
2023-05-13T14:29:52.099Z,7.58
2023-05-13T14:30:52.110Z,7.11
2023-05-13T14:31:52.162Z,7.36
2023-05-13T14:32:52.138Z,7.76
2023-05-13T14:33:52.117Z,7.18
2023-05-13T14:34:52.097Z,7.15
2023-05-13T14:35:52.096Z,6.65
2023-05-13T14:36:52.097Z,7.31
2023-05-13T14:37:52.125Z,6.73
2023-05-13T14:38:52.075Z,6.74
2023-05-13T14:39:52.075Z,7.22
2023-05-13T14:40:52.110Z,6.84
2023-05-13T14:41:52.134Z,6.96
2023-05-13T14:42:52.073Z,7.71
2023-05-13T14:43:52.132Z,7.95
2023-05-13T14:44:52.106Z,7.50
2023-05-13T14:45:52.083Z,6.93
2023-05-13T14:46:52.170Z,6.96
2023-05-13T14:47:52.103Z,7.72
2023-05-13T14:48:52.107Z,7.42
2023-05-13T14:49:52.086Z,8.15
2023-05-13T14:50:52.144Z,7.83
2023-05-13T14:51:52.136Z,7.35
2023-05-13T14:52:52.088Z,7.65
2023-05-13T14:53:52.140Z,7.10
2023-05-13T14:54:52.177Z,7.67
2023-05-13T14:55:52.160Z,7.32
2023-05-13T14:56:52.150Z,7.94
2023-05-13T14:57:52.092Z,7.61
2023-05-13T14:58:52.146Z,8.44
2023-05-13T14:59:52.144Z,7.18
2023-05-13T15:01:52.219Z,7.37
2023-05-13T15:02:52.349Z,8.14